EGCC Airport Information

Runway Information
Runway 05L Length 10000 ft width 150 ft
Elevation 212 ft Threshold 1401 ft Heading 51
Runway 23R Length 10000 ft Width 150 ft
Elevation 249 ft Threshold 600 ft Heading 231
Runway 05R Length 9997 ft width 150 ft
Elevation 186 ft Threshold 604 ft Heading 51
Runway 23L Length 9997 ft Width 150 ft
Elevation 227 ft Threshold 604 ft Heading 231
Airport Frequencies
Type APP Name APP Frequency 135 MHZ
Type ATIS Name ATIS Frequency 128.175 MHZ
Type CLD Name CLNC DEL Frequency 121.7 MHZ
Type GND Name GND Frequency 121.85 MHZ
Type TWR Name TWR Frequency 118.625 MHZ
Airport Navaids
Type NDB Name Manchester Frequency 428 KHZ
Type VOR-DME Name Manchester Frequency 113550 KHZ
Airport Weather Information & NOTAM
ADDS - METARS form results

(1441 UTC 24 June 2018)
 
METAR text: EGCC 241420Z AUTO 28005KT 220V350 9999 NCD 23/07 Q1025 NOSIG
Conditions at: EGCC (MANCHESTER INTL , GB) observed 1420 UTC 24 June 2018
Temperature: 23.0°C (73°F)
Dewpoint: 7.0°C (45°F) [RH = 36%]
Pressure (altimeter): 30.27 inches Hg (1025.0 mb)
Winds: from the W (280 degrees) at 6 MPH (5 knots; 2.6 m/s)
Visibility: 6 or more miles (10+ km)
Ceiling: at least 12,000 feet AGL
Clouds: sky clear below 12,000 feet AGL
Weather: no significant weather observed at this time

METAR text: EGCC 241350Z AUTO VRB05KT 9999 NCD 23/07 Q1025
Conditions at: EGCC (MANCHESTER INTL , GB) observed 1350 UTC 24 June 2018
Temperature: 23.0°C (73°F)
Dewpoint: 7.0°C (45°F) [RH = 36%]
Pressure (altimeter): 30.27 inches Hg (1025.0 mb)
Winds: variable direction winds at 6 MPH (5 knots; 2.6 m/s)
Visibility: 6 or more miles (10+ km)
Ceiling: at least 12,000 feet AGL
Clouds: sky clear below 12,000 feet AGL
Weather: no significant weather observed at this time